Time;durP1;ratioP1;P1;durP2;ratioP2;P2;SDS_P1;SDS_P2;PMS_P1;PMS_P2;Temp;Humidity;BMP_temperature;BMP_pressure;BME280_temperature;BME280_humidity;BME280_pressure;Samples;Min_cycle;Max_cycle;Signal;HPM_P1;HPM_P2
2023/09/29 00:00:20;;;;;;;28.07;25.83;;;;;;;;;;5029281;28;20064;-58
2023/09/29 00:02:47;;;;;;;48.30;44.17;;;;;;;;;;5031190;28;20025;-61
2023/09/29 00:05:14;;;;;;;64.10;59.72;;;;;;;;;;5031183;28;20057;-59
2023/09/29 00:07:39;;;;;;;21.17;19.35;;;;;;;;;;5031202;28;20391;-60
2023/09/29 00:10:08;;;;;;;35.92;32.88;;;;;;;;;;5030776;28;20120;-59
2023/09/29 00:12:33;;;;;;;71.88;66.78;;;;;;;;;;5033732;28;20594;-60
2023/09/29 00:14:58;;;;;;;46.53;43.20;;;;;;;;;;5034843;28;20025;-59
2023/09/29 00:17:23;;;;;;;32.58;30.13;;;;;;;;;;5030824;28;20025;-59
2023/09/29 00:19:48;;;;;;;37.00;34.17;;;;;;;;;;5027697;28;20023;-60
2023/09/29 00:22:14;;;;;;;38.03;35.28;;;;;;;;;;5031183;28;20076;-59
2023/09/29 00:24:39;;;;;;;57.90;53.47;;;;;;;;;;5031103;28;20021;-59
2023/09/29 00:27:04;;;;;;;35.47;32.77;;;;;;;;;;5033904;28;20389;-58
2023/09/29 00:29:30;;;;;;;43.17;39.80;;;;;;;;;;5029643;28;20020;-58
2023/09/29 00:31:55;;;;;;;54.17;50.13;;;;;;;;;;5031618;28;20425;-60
2023/09/29 00:34:20;;;;;;;45.03;41.07;;;;;;;;;;5030922;28;20018;-60
2023/09/29 00:36:47;;;;;;;65.83;61.57;;;;;;;;;;5031421;28;20120;-60
2023/09/29 00:39:13;;;;;;;72.75;67.25;;;;;;;;;;5030192;28;20583;-60
2023/09/29 00:41:39;;;;;;;50.78;47.35;;;;;;;;;;5032164;28;20400;-60
2023/09/29 00:44:06;;;;;;;81.80;76.10;;;;;;;;;;5030519;28;20025;-60
2023/09/29 00:46:31;;;;;;;30.48;28.08;;;;;;;;;;5031466;28;20029;-60
2023/09/29 00:48:56;;;;;;;35.07;32.20;;;;;;;;;;5030728;28;20386;-60
2023/09/29 00:51:22;;;;;;;51.53;47.45;;;;;;;;;;5029971;28;20400;-59
2023/09/29 00:53:48;;;;;;;42.28;39.22;;;;;;;;;;5034892;28;20040;-59
2023/09/29 00:56:13;;;;;;;48.70;45.22;;;;;;;;;;5038025;28;20515;-60
2023/09/29 00:58:39;;;;;;;44.70;41.33;;;;;;;;;;5028679;28;20022;-60
2023/09/29 01:01:06;;;;;;;63.38;58.83;;;;;;;;;;5029447;28;20027;-60
2023/09/29 01:03:32;;;;;;;24.02;22.02;;;;;;;;;;5029744;28;20091;-59
2023/09/29 01:05:58;;;;;;;72.53;67.28;;;;;;;;;;5030574;28;20029;-57
2023/09/29 01:08:23;;;;;;;30.00;27.33;;;;;;;;;;5033918;28;20025;-58
2023/09/29 01:10:49;;;;;;;65.53;60.40;;;;;;;;;;5035582;28;20025;-59
2023/09/29 01:13:15;;;;;;;37.13;34.17;;;;;;;;;;5030430;28;20037;-58
2023/09/29 01:15:40;;;;;;;70.03;65.28;;;;;;;;;;5034545;28;20084;-58
2023/09/29 01:18:06;;;;;;;40.70;37.78;;;;;;;;;;5030246;28;20097;-58
2023/09/29 01:20:32;;;;;;;43.42;40.28;;;;;;;;;;5028322;28;20075;-58
2023/09/29 01:23:00;;;;;;;44.92;41.60;;;;;;;;;;5025873;28;20107;-58
2023/09/29 01:25:25;;;;;;;33.42;30.90;;;;;;;;;;5027886;28;20083;-58
2023/09/29 01:27:50;;;;;;;44.90;41.43;;;;;;;;;;5029864;28;20021;-59
2023/09/29 01:30:18;;;;;;;43.47;39.97;;;;;;;;;;5028873;28;20029;-58
2023/09/29 01:32:46;;;;;;;45.83;42.45;;;;;;;;;;5029759;28;20083;-59
2023/09/29 01:35:11;;;;;;;40.63;37.72;;;;;;;;;;5029822;28;20071;-60
2023/09/29 01:37:38;;;;;;;51.40;47.63;;;;;;;;;;5026712;28;20116;-58
2023/09/29 01:40:05;;;;;;;31.65;29.15;;;;;;;;;;5031802;28;20112;-60
2023/09/29 01:42:30;;;;;;;28.10;25.67;;;;;;;;;;5027048;28;20059;-60
2023/09/29 01:44:55;;;;;;;27.55;25.38;;;;;;;;;;5034354;28;20059;-59
2023/09/29 01:47:21;;;;;;;36.13;33.10;;;;;;;;;;5033445;28;20489;-60
2023/09/29 01:49:48;;;;;;;22.20;19.98;;;;;;;;;;5033395;28;20053;-58
2023/09/29 01:52:14;;;;;;;32.15;29.38;;;;;;;;;;5034029;28;20060;-58
2023/09/29 01:54:39;;;;;;;39.83;36.70;;;;;;;;;;5034794;28;20485;-59
2023/09/29 01:57:04;;;;;;;27.25;24.95;;;;;;;;;;5032974;28;20032;-59
2023/09/29 01:59:30;;;;;;;38.30;35.37;;;;;;;;;;5032840;28;20025;-58
2023/09/29 02:01:56;;;;;;;58.85;53.78;;;;;;;;;;5032308;28;20032;-57
2023/09/29 02:04:21;;;;;;;27.20;24.93;;;;;;;;;;5040538;28;20091;-58
2023/09/29 02:06:46;;;;;;;53.37;49.33;;;;;;;;;;5033879;28;20373;-59
2023/09/29 02:09:11;;;;;;;36.25;33.40;;;;;;;;;;5033249;28;20108;-58
2023/09/29 02:11:39;;;;;;;36.53;33.53;;;;;;;;;;5033017;28;20025;-58
2023/09/29 02:14:05;;;;;;;37.05;34.30;;;;;;;;;;5032646;28;20362;-58
2023/09/29 02:16:30;;;;;;;36.97;34.33;;;;;;;;;;5026094;28;20072;-59
2023/09/29 02:18:56;;;;;;;44.55;41.17;;;;;;;;;;5032613;28;20116;-58
2023/09/29 02:21:22;;;;;;;44.63;40.25;;;;;;;;;;5033397;28;20456;-58
2023/09/29 02:23:48;;;;;;;26.55;24.10;;;;;;;;;;5033619;28;20010;-59
2023/09/29 02:26:13;;;;;;;39.85;36.72;;;;;;;;;;5036693;28;20031;-58
2023/09/29 02:28:38;;;;;;;25.52;23.33;;;;;;;;;;5034728;28;20049;-58
2023/09/29 02:31:03;;;;;;;44.20;40.80;;;;;;;;;;5035019;28;20030;-58
2023/09/29 02:33:30;;;;;;;49.43;45.77;;;;;;;;;;5033490;28;20025;-59
2023/09/29 02:35:56;;;;;;;43.88;40.65;;;;;;;;;;5033599;28;20022;-60
2023/09/29 02:38:21;;;;;;;56.33;52.15;;;;;;;;;;5033117;28;20017;-61
2023/09/29 02:40:47;;;;;;;57.83;53.83;;;;;;;;;;5039102;28;20366;-59
2023/09/29 02:43:12;;;;;;;30.08;27.67;;;;;;;;;;5033190;28;20017;-60
2023/09/29 02:45:40;;;;;;;31.77;29.27;;;;;;;;;;5029601;28;20026;-60
2023/09/29 02:48:06;;;;;;;41.30;38.15;;;;;;;;;;5033602;28;20017;-59
2023/09/29 02:50:34;;;;;;;37.25;34.45;;;;;;;;;;5032586;28;20380;-59
2023/09/29 02:53:00;;;;;;;29.95;27.38;;;;;;;;;;5033396;28;20025;-58
2023/09/29 02:55:26;;;;;;;65.95;61.08;;;;;;;;;;5035502;28;20080;-59
2023/09/29 02:57:51;;;;;;;39.70;36.78;;;;;;;;;;5033203;28;20025;-59
2023/09/29 03:00:19;;;;;;;52.27;48.37;;;;;;;;;;5032321;28;20500;-58
2023/09/29 03:02:44;;;;;;;63.22;58.53;;;;;;;;;;5034577;28;20047;-57
2023/09/29 03:05:11;;;;;;;63.67;59.30;;;;;;;;;;5032682;28;20536;-58
2023/09/29 03:07:37;;;;;;;48.63;45.05;;;;;;;;;;5031894;28;20021;-59
2023/09/29 03:10:05;;;;;;;46.97;43.50;;;;;;;;;;5030571;28;20699;-58
2023/09/29 03:12:30;;;;;;;60.90;56.13;;;;;;;;;;5035968;28;20397;-60
2023/09/29 03:14:56;;;;;;;51.03;47.43;;;;;;;;;;5030253;28;20022;-62
2023/09/29 03:17:21;;;;;;;26.73;24.48;;;;;;;;;;5037232;28;20021;-60
2023/09/29 03:19:46;;;;;;;54.95;50.50;;;;;;;;;;5032477;28;20027;-59
2023/09/29 03:22:13;;;;;;;36.67;33.75;;;;;;;;;;5032660;28;20033;-58
2023/09/29 03:24:38;;;;;;;31.67;29.02;;;;;;;;;;5032675;28;20033;-61
2023/09/29 03:27:03;;;;;;;47.20;43.60;;;;;;;;;;5035186;28;20105;-59
2023/09/29 03:29:28;;;;;;;42.42;39.25;;;;;;;;;;5040217;28;20405;-58
2023/09/29 03:31:54;;;;;;;55.20;51.38;;;;;;;;;;5037741;28;20040;-60
2023/09/29 03:34:19;;;;;;;45.97;42.20;;;;;;;;;;5034774;28;20026;-58
2023/09/29 03:36:45;;;;;;;56.97;52.70;;;;;;;;;;5032096;28;20491;-59
2023/09/29 03:39:10;;;;;;;47.85;44.45;;;;;;;;;;5036936;28;20030;-59
2023/09/29 03:41:36;;;;;;;69.20;63.83;;;;;;;;;;5031491;28;20084;-60
2023/09/29 03:44:01;;;;;;;37.27;34.27;;;;;;;;;;5031887;28;20030;-60
2023/09/29 03:46:28;;;;;;;24.33;22.07;;;;;;;;;;5032672;28;20022;-60
2023/09/29 03:48:54;;;;;;;38.80;35.63;;;;;;;;;;5031148;28;20032;-60
2023/09/29 03:51:21;;;;;;;54.35;50.28;;;;;;;;;;5031702;28;20025;-60
2023/09/29 03:53:46;;;;;;;39.58;36.33;;;;;;;;;;5032070;28;20024;-61
2023/09/29 03:56:11;;;;;;;22.57;20.70;;;;;;;;;;5038665;28;20025;-60
2023/09/29 03:58:38;;;;;;;30.48;27.95;;;;;;;;;;5031728;28;20532;-59
2023/09/29 04:01:03;;;;;;;34.80;32.17;;;;;;;;;;5035927;28;20401;-60
2023/09/29 04:03:28;;;;;;;32.73;29.60;;;;;;;;;;5031332;28;20473;-61
2023/09/29 04:05:53;;;;;;;28.87;26.23;;;;;;;;;;5033531;28;20141;-61
2023/09/29 04:08:18;;;;;;;48.53;44.67;;;;;;;;;;5041586;28;20126;-58
2023/09/29 04:10:44;;;;;;;20.63;18.75;;;;;;;;;;5031068;28;20481;-60
2023/09/29 04:13:09;;;;;;;39.00;35.63;;;;;;;;;;5028500;28;20045;-58
2023/09/29 04:15:36;;;;;;;31.38;28.90;;;;;;;;;;5032261;28;20033;-58
2023/09/29 04:18:01;;;;;;;35.90;33.03;;;;;;;;;;5035804;28;20086;-58
2023/09/29 04:20:26;;;;;;;29.23;26.67;;;;;;;;;;5032989;28;20647;-60
2023/09/29 04:22:52;;;;;;;31.63;29.10;;;;;;;;;;5032508;28;20116;-60
2023/09/29 04:25:18;;;;;;;79.13;73.65;;;;;;;;;;5035114;28;20026;-60
2023/09/29 04:27:44;;;;;;;40.13;37.10;;;;;;;;;;5031201;28;20396;-60
2023/09/29 04:30:12;;;;;;;48.55;44.90;;;;;;;;;;5027878;28;20022;-59
2023/09/29 04:32:38;;;;;;;38.17;34.83;;;;;;;;;;5011612;28;20018;-60
2023/09/29 04:35:05;;;;;;;53.85;49.38;;;;;;;;;;5028709;28;20021;-59
2023/09/29 04:37:30;;;;;;;35.25;32.47;;;;;;;;;;5027573;28;20100;-60
2023/09/29 04:39:56;;;;;;;51.53;47.60;;;;;;;;;;5025773;28;20124;-61
2023/09/29 04:42:21;;;;;;;28.15;25.75;;;;;;;;;;5027828;28;20037;-60
2023/09/29 04:44:46;;;;;;;44.33;41.23;;;;;;;;;;5027879;28;20033;-60
2023/09/29 04:47:11;;;;;;;48.13;44.53;;;;;;;;;;5027324;28;20404;-58
2023/09/29 04:49:37;;;;;;;44.67;41.60;;;;;;;;;;5028517;28;20084;-59
2023/09/29 04:52:02;;;;;;;30.33;27.57;;;;;;;;;;5028405;28;20037;-61
2023/09/29 04:54:27;;;;;;;47.40;43.45;;;;;;;;;;5030534;28;20428;-60
2023/09/29 04:56:53;;;;;;;38.28;35.00;;;;;;;;;;5030552;28;20067;-60
2023/09/29 04:59:18;;;;;;;55.90;51.57;;;;;;;;;;5031395;28;20804;-60
2023/09/29 05:01:43;;;;;;;38.90;35.70;;;;;;;;;;5036976;28;20036;-60
2023/09/29 05:04:08;;;;;;;70.82;65.75;;;;;;;;;;5035231;28;20026;-60
2023/09/29 05:06:34;;;;;;;28.33;26.00;;;;;;;;;;5035638;28;20040;-58
2023/09/29 05:08:59;;;;;;;42.57;39.27;;;;;;;;;;5032862;28;20450;-60
2023/09/29 05:11:25;;;;;;;23.13;21.10;;;;;;;;;;5027311;28;20429;-60
2023/09/29 05:13:52;;;;;;;32.85;29.98;;;;;;;;;;5034897;28;20370;-60
2023/09/29 05:16:18;;;;;;;28.05;25.55;;;;;;;;;;5030824;28;20079;-59
2023/09/29 05:18:43;;;;;;;47.97;44.07;;;;;;;;;;5030200;28;20026;-58
2023/09/29 05:21:09;;;;;;;40.10;36.72;;;;;;;;;;5030116;28;20432;-59
2023/09/29 05:23:35;;;;;;;62.92;58.33;;;;;;;;;;5030812;28;20045;-59
2023/09/29 05:26:04;;;;;;;48.30;44.75;;;;;;;;;;5030646;28;20041;-60
2023/09/29 05:28:29;;;;;;;58.53;54.33;;;;;;;;;;5029650;28;20020;-59
2023/09/29 05:30:55;;;;;;;58.42;54.35;;;;;;;;;;5030336;28;20021;-61
2023/09/29 05:33:20;;;;;;;42.13;38.90;;;;;;;;;;5030853;28;20025;-60
2023/09/29 05:35:48;;;;;;;43.58;40.28;;;;;;;;;;5030322;28;20170;-59
2023/09/29 05:38:13;;;;;;;30.38;27.52;;;;;;;;;;5039186;28;20135;-60
2023/09/29 05:40:38;;;;;;;60.73;56.23;;;;;;;;;;5030629;28;20393;-60
2023/09/29 05:43:04;;;;;;;39.47;36.60;;;;;;;;;;5035381;28;20447;-60
2023/09/29 05:45:29;;;;;;;36.85;34.00;;;;;;;;;;5030925;28;20013;-59
2023/09/29 05:47:54;;;;;;;32.43;29.83;;;;;;;;;;5031076;28;20021;-59
2023/09/29 05:50:19;;;;;;;25.93;23.90;;;;;;;;;;5029956;28;20117;-60
2023/09/29 05:52:45;;;;;;;40.63;37.43;;;;;;;;;;5029543;28;20025;-61
2023/09/29 05:55:11;;;;;;;34.97;32.10;;;;;;;;;;5027100;28;20121;-60
2023/09/29 05:57:37;;;;;;;59.08;54.42;;;;;;;;;;5030200;28;20424;-59
2023/09/29 06:00:04;;;;;;;43.72;40.15;;;;;;;;;;5029453;28;20089;-60
2023/09/29 06:02:30;;;;;;;25.58;23.23;;;;;;;;;;5029204;28;20106;-61
2023/09/29 06:04:55;;;;;;;27.53;25.13;;;;;;;;;;5028102;28;20053;-61
2023/09/29 06:07:20;;;;;;;28.87;26.63;;;;;;;;;;5030336;28;20448;-60
2023/09/29 06:09:45;;;;;;;28.80;26.43;;;;;;;;;;5021871;28;20033;-60
2023/09/29 06:12:10;;;;;;;40.37;37.40;;;;;;;;;;5031971;28;20105;-61
2023/09/29 06:14:35;;;;;;;50.15;46.55;;;;;;;;;;5030133;28;20021;-59
2023/09/29 06:17:01;;;;;;;88.07;81.43;;;;;;;;;;5029781;28;20124;-61
2023/09/29 06:19:26;;;;;;;95.25;88.90;;;;;;;;;;5028827;28;20022;-60
2023/09/29 06:21:51;;;;;;;46.20;42.60;;;;;;;;;;5030396;28;20592;-61
2023/09/29 06:24:16;;;;;;;33.73;31.13;;;;;;;;;;5028765;28;20029;-61
2023/09/29 06:26:42;;;;;;;25.83;23.70;;;;;;;;;;5037830;28;20108;-60
2023/09/29 06:29:07;;;;;;;54.10;50.30;;;;;;;;;;5033534;28;20032;-60
2023/09/29 06:31:32;;;;;;;40.57;37.60;;;;;;;;;;5031215;28;20064;-59
2023/09/29 06:33:58;;;;;;;32.40;29.97;;;;;;;;;;5033414;28;20017;-60
2023/09/29 06:36:23;;;;;;;32.53;29.93;;;;;;;;;;5033447;28;20041;-61
2023/09/29 06:38:48;;;;;;;53.20;49.43;;;;;;;;;;5032514;28;20029;-60
2023/09/29 06:41:13;;;;;;;61.00;56.40;;;;;;;;;;5033202;28;20022;-60
2023/09/29 06:43:39;;;;;;;54.00;49.97;;;;;;;;;;5032774;28;20029;-60
2023/09/29 06:46:05;;;;;;;79.78;74.10;;;;;;;;;;5032189;28;20037;-60
2023/09/29 06:48:30;;;;;;;39.30;36.50;;;;;;;;;;5037767;28;20402;-61
2023/09/29 06:50:59;;;;;;;55.90;51.63;;;;;;;;;;5035692;28;20037;-60
2023/09/29 06:53:24;;;;;;;36.42;33.55;;;;;;;;;;5033036;28;20027;-61
2023/09/29 06:55:49;;;;;;;42.43;39.40;;;;;;;;;;5032827;28;20026;-61
2023/09/29 06:58:14;;;;;;;44.17;40.67;;;;;;;;;;5033211;28;20056;-61
2023/09/29 07:00:40;;;;;;;70.78;65.80;;;;;;;;;;5031381;28;20021;-60
2023/09/29 07:03:06;;;;;;;116.27;108.03;;;;;;;;;;5035067;28;20448;-59
2023/09/29 07:05:31;;;;;;;42.78;39.38;;;;;;;;;;5024819;28;20485;-59
2023/09/29 07:07:56;;;;;;;37.63;34.65;;;;;;;;;;5031015;28;20095;-59
2023/09/29 07:10:21;;;;;;;54.27;50.17;;;;;;;;;;5033451;28;20025;-60
2023/09/29 07:12:46;;;;;;;53.87;49.67;;;;;;;;;;5033552;28;20059;-63
2023/09/29 07:15:12;;;;;;;47.20;43.87;;;;;;;;;;5033172;28;20095;-61
2023/09/29 07:17:37;;;;;;;79.90;74.30;;;;;;;;;;5039113;28;20477;-59
2023/09/29 07:20:03;;;;;;;82.13;76.27;;;;;;;;;;5033965;28;20041;-61
2023/09/29 07:22:28;;;;;;;49.33;45.53;;;;;;;;;;5037642;28;20046;-62
2023/09/29 07:24:57;;;;;;;95.33;88.07;;;;;;;;;;5035269;28;20029;-59
2023/09/29 07:27:23;;;;;;;64.18;59.75;;;;;;;;;;5037284;28;20024;-61
2023/09/29 07:29:49;;;;;;;81.07;75.45;;;;;;;;;;5041377;28;20096;-62
2023/09/29 07:32:14;;;;;;;66.45;60.83;;;;;;;;;;5042988;28;20049;-62
2023/09/29 07:34:40;;;;;;;59.90;55.42;;;;;;;;;;5048356;28;20010;-62
2023/09/29 07:37:05;;;;;;;60.33;56.08;;;;;;;;;;5040481;28;20025;-61
2023/09/29 07:39:30;;;;;;;85.38;79.78;;;;;;;;;;5016717;28;20037;-60
2023/09/29 07:41:56;;;;;;;124.00;115.37;;;;;;;;;;5015087;28;20478;-60
2023/09/29 07:44:21;;;;;;;96.85;90.10;;;;;;;;;;5013244;28;20117;-60
2023/09/29 07:46:52;;;;;;;62.47;58.23;;;;;;;;;;5035860;28;20029;-60
2023/09/29 07:49:18;;;;;;;83.53;77.65;;;;;;;;;;5037783;28;20471;-61
2023/09/29 07:51:44;;;;;;;71.38;66.78;;;;;;;;;;5032364;28;20010;-62
2023/09/29 07:54:09;;;;;;;133.02;124.07;;;;;;;;;;5032561;28;20025;-62
2023/09/29 07:56:34;;;;;;;157.20;142.27;;;;;;;;;;5032301;28;20022;-63
2023/09/29 07:58:59;;;;;;;91.67;82.73;;;;;;;;;;5031410;28;20060;-61
2023/09/29 08:01:24;;;;;;;60.03;55.97;;;;;;;;;;5032790;28;20026;-60
2023/09/29 08:03:51;;;;;;;79.37;74.03;;;;;;;;;;5029745;28;20482;-61
2023/09/29 08:06:17;;;;;;;64.93;60.70;;;;;;;;;;5032208;28;20451;-60
2023/09/29 08:08:42;;;;;;;137.98;128.35;;;;;;;;;;5032217;28;20021;-62
2023/09/29 08:11:07;;;;;;;81.30;75.50;;;;;;;;;;5031812;28;20492;-61
2023/09/29 08:13:34;;;;;;;82.23;76.47;;;;;;;;;;5032855;28;20477;-61
2023/09/29 08:15:59;;;;;;;97.22;90.13;;;;;;;;;;5031982;28;20029;-61
2023/09/29 08:18:24;;;;;;;197.43;179.97;;;;;;;;;;5031611;28;20029;-59
2023/09/29 08:20:56;;;;;;;98.87;91.93;;;;;;;;;;5031276;28;20045;-61
2023/09/29 08:23:22;;;;;;;126.57;118.22;;;;;;;;;;5031795;28;20021;-61
2023/09/29 08:25:47;;;;;;;153.32;140.60;;;;;;;;;;5031325;28;20017;-62
2023/09/29 08:28:13;;;;;;;179.67;165.60;;;;;;;;;;5032200;28;20036;-61
2023/09/29 08:30:38;;;;;;;156.82;145.63;;;;;;;;;;5030986;28;20053;-62
2023/09/29 08:33:03;;;;;;;111.55;103.80;;;;;;;;;;5031556;28;20473;-62
2023/09/29 08:35:29;;;;;;;105.97;91.33;;;;;;;;;;5031362;28;20037;-61
2023/09/29 08:37:54;;;;;;;100.93;94.43;;;;;;;;;;5031364;28;20424;-61
2023/09/29 08:40:19;;;;;;;171.07;157.67;;;;;;;;;;5030634;28;20029;-61
2023/09/29 08:42:45;;;;;;;101.77;95.17;;;;;;;;;;5043201;28;20024;-61
2023/09/29 08:45:14;;;;;;;;;;;;;;;;;;5034505;28;20497;-61
2023/09/29 08:47:42;;;;;;;106.55;99.80;;;;;;;;;;5031252;28;19927;-60
2023/09/29 08:50:14;;;;;;;129.70;120.75;;;;;;;;;;5030314;28;20041;-61
2023/09/29 08:52:40;;;;;;;136.90;127.95;;;;;;;;;;5031261;28;20087;-60
2023/09/29 08:55:07;;;;;;;169.35;158.15;;;;;;;;;;5031084;28;20033;-61
2023/09/29 08:57:33;;;;;;;157.85;146.77;;;;;;;;;;5034010;28;20017;-62
2023/09/29 09:00:00;;;;;;;186.10;172.25;;;;;;;;;;5030601;28;20022;-62
2023/09/29 09:02:25;;;;;;;254.43;230.57;;;;;;;;;;5031342;28;20075;-61
2023/09/29 09:04:50;;;;;;;173.40;159.93;;;;;;;;;;5031513;28;20602;-61
2023/09/29 09:07:15;;;;;;;151.70;141.80;;;;;;;;;;5030963;28;20112;-62
2023/09/29 09:09:48;;;;;;;130.83;122.37;;;;;;;;;;5026006;28;20079;-61
2023/09/29 09:12:13;;;;;;;220.30;201.45;;;;;;;;;;5036124;28;20459;-62
2023/09/29 09:14:42;;;;;;;136.97;127.80;;;;;;;;;;5030887;28;20562;-62
2023/09/29 09:17:10;;;;;;;203.23;187.38;;;;;;;;;;5030673;28;20028;-62
2023/09/29 09:19:43;;;;;;;172.80;160.27;;;;;;;;;;5029628;28;20076;-60
2023/09/29 09:22:15;;;;;;;198.68;185.60;;;;;;;;;;5028455;28;20029;-62
2023/09/29 09:24:40;;;;;;;203.15;188.45;;;;;;;;;;5030735;28;20040;-62
2023/09/29 09:27:05;;;;;;;187.33;174.97;;;;;;;;;;5030793;28;20057;-60
2023/09/29 09:29:30;;;;;;;178.83;166.80;;;;;;;;;;5029918;28;20025;-61
2023/09/29 09:31:59;;;;;;;214.23;200.02;;;;;;;;;;5030807;28;20013;-60
2023/09/29 09:34:33;;;;;;;208.35;194.35;;;;;;;;;;5030886;28;20020;-60
2023/09/29 09:36:59;;;;;;;231.90;214.60;;;;;;;;;;5032225;28;20152;-63
2023/09/29 09:39:24;;;;;;;206.87;193.07;;;;;;;;;;5028166;28;20112;-62
2023/09/29 09:41:53;;;;;;;214.65;199.77;;;;;;;;;;5030948;28;20975;-60
2023/09/29 09:44:20;;;;;;;209.43;196.18;;;;;;;;;;5030679;28;20028;-60
2023/09/29 09:46:49;;;;;;;211.35;198.48;;;;;;;;;;5030824;28;20052;-62
2023/09/29 09:49:15;;;;;;;234.30;218.18;;;;;;;;;;5029834;28;20017;-61
2023/09/29 09:51:47;;;;;;;294.85;273.67;;;;;;;;;;5037077;28;20481;-62
2023/09/29 09:54:13;;;;;;;218.75;204.70;;;;;;;;;;5035457;28;20111;-62
2023/09/29 09:57:04;;;;;;;219.57;205.75;;;;;;;;;;5031681;28;20535;-63
2023/09/29 09:59:29;;;;;;;223.70;207.18;;;;;;;;;;5025539;28;20041;-62
2023/09/29 10:01:57;;;;;;;246.50;229.63;;;;;;;;;;5034114;28;20027;-62
2023/09/29 10:04:26;;;;;;;250.30;233.07;;;;;;;;;;5036259;28;20032;-62
2023/09/29 10:06:51;;;;;;;258.23;241.50;;;;;;;;;;5036714;28;20044;-62
2023/09/29 10:09:16;;;;;;;292.05;271.92;;;;;;;;;;5035398;28;20021;-63
2023/09/29 10:11:42;;;;;;;340.20;314.70;;;;;;;;;;5036708;28;20017;-62
2023/09/29 10:14:08;;;;;;;464.10;426.00;;;;;;;;;;5034649;28;20052;-63
2023/09/29 10:16:35;;;;;;;351.60;328.38;;;;;;;;;;5029844;28;20022;-64
2023/09/29 10:19:05;;;;;;;364.42;337.00;;;;;;;;;;5032002;28;20033;-63
2023/09/29 10:21:39;;;;;;;308.35;287.77;;;;;;;;;;5032450;28;20017;-63
2023/09/29 10:24:05;;;;;;;439.17;407.70;;;;;;;;;;5032889;28;20104;-61
2023/09/29 10:26:41;;;;;;;310.60;288.55;;;;;;;;;;5033018;28;20029;-62
2023/09/29 10:29:09;;;;;;;382.80;355.50;;;;;;;;;;5031057;28;20029;-62
2023/09/29 10:31:35;;;;;;;411.15;379.33;;;;;;;;;;5032494;28;20025;-61
2023/09/29 10:34:01;;;;;;;369.85;339.65;;;;;;;;;;5036460;28;20083;-61
2023/09/29 10:36:28;;;;;;;414.53;382.63;;;;;;;;;;5038540;28;20033;-61
2023/09/29 10:38:54;;;;;;;451.52;416.30;;;;;;;;;;5033629;28;21065;-63
2023/09/29 10:41:19;;;;;;;395.15;362.33;;;;;;;;;;5032632;28;20116;-61
2023/09/29 10:43:48;;;;;;;;;;;;;;;;;;5032859;28;20017;-61
2023/09/29 10:46:13;;;;;;;437.00;401.73;;;;;;;;;;5032506;28;20387;-63
2023/09/29 10:48:49;;;;;;;440.58;406.70;;;;;;;;;;5032757;28;20044;-62
2023/09/29 10:51:24;;;;;;;573.25;527.85;;;;;;;;;;5027347;28;20033;-62
2023/09/29 10:53:49;;;;;;;492.70;456.50;;;;;;;;;;5041751;28;20469;-62
2023/09/29 10:56:19;;;;;;;467.63;432.25;;;;;;;;;;5037576;28;20082;-61
2023/09/29 10:58:46;;;;;;;434.17;402.63;;;;;;;;;;5036280;28;20052;-63
2023/09/29 11:01:11;;;;;;;;;;;;;;;;;;5038987;28;20036;-66
2023/09/29 11:03:36;;;;;;;509.73;470.95;;;;;;;;;;5039014;28;19909;-63
2023/09/29 11:06:08;;;;;;;402.40;374.20;;;;;;;;;;5029365;28;20029;-62
2023/09/29 11:08:43;;;;;;;402.63;375.00;;;;;;;;;;5032344;28;20434;-64
2023/09/29 11:11:09;;;;;;;539.67;495.45;;;;;;;;;;5036050;28;20071;-63
2023/09/29 11:13:37;;;;;;;469.77;431.70;;;;;;;;;;5034482;28;20096;-62
2023/09/29 11:16:04;;;;;;;417.00;382.23;;;;;;;;;;5032034;28;20033;-61
2023/09/29 11:18:33;;;;;;;456.70;415.38;;;;;;;;;;5039270;28;20029;-62
2023/09/29 11:20:59;;;;;;;537.20;495.90;;;;;;;;;;5038563;28;20024;-64
2023/09/29 11:23:25;;;;;;;476.17;439.75;;;;;;;;;;5035738;28;20448;-60
2023/09/29 11:25:50;;;;;;;;;;;;;;;;;;5033199;28;20017;-62
2023/09/29 11:28:16;;;;;;;530.83;488.50;;;;;;;;;;5037144;28;19920;-62
2023/09/29 11:30:41;;;;;;;;;;;;;;;;;;5021622;28;20037;-61
2023/09/29 11:33:09;;;;;;;575.70;532.33;;;;;;;;;;5031490;28;19931;-63
2023/09/29 11:35:34;;;;;;;535.78;495.60;;;;;;;;;;5041038;28;20029;-60
2023/09/29 11:37:59;;;;;;;;;;;;;;;;;;5034054;28;20021;-62
2023/09/29 11:40:26;;;;;;;398.33;367.55;;;;;;;;;;5031439;28;20384;-63
2023/09/29 11:42:51;;;;;;;485.70;448.55;;;;;;;;;;5032123;28;20469;-61
2023/09/29 11:45:16;;;;;;;;;;;;;;;;;;5032651;28;20021;-62
2023/09/29 11:47:42;;;;;;;604.15;558.72;;;;;;;;;;5032028;28;19912;-62
2023/09/29 11:50:08;;;;;;;574.47;531.50;;;;;;;;;;5045570;28;20030;-61
2023/09/29 11:52:34;;;;;;;545.95;504.02;;;;;;;;;;5031820;28;20013;-60
2023/09/29 11:54:59;;;;;;;;;;;;;;;;;;5032661;28;20014;-60
2023/09/29 11:57:24;;;;;;;557.50;510.38;;;;;;;;;;5031965;28;19909;-62
2023/09/29 11:59:49;;;;;;;;;;;;;;;;;;5030503;28;20144;-62
2023/09/29 12:02:14;;;;;;;413.23;379.20;;;;;;;;;;5030419;28;19916;-62
2023/09/29 12:04:39;;;;;;;;;;;;;;;;;;5032314;28;20021;-62
2023/09/29 12:07:05;;;;;;;512.70;472.80;;;;;;;;;;5028053;28;19916;-62
2023/09/29 12:09:30;;;;;;;;;;;;;;;;;;5031764;28;20096;-61
2023/09/29 12:11:55;;;;;;;425.80;391.83;;;;;;;;;;5031749;28;19967;-62
2023/09/29 12:14:21;;;;;;;490.63;452.03;;;;;;;;;;5032848;28;20025;-60
2023/09/29 12:16:46;;;;;;;471.88;436.38;;;;;;;;;;5029521;28;20571;-62
2023/09/29 12:19:12;;;;;;;;;;;;;;;;;;5040121;28;20104;-61
2023/09/29 12:21:38;;;;;;;478.38;438.42;;;;;;;;;;5031979;28;20288;-62
2023/09/29 12:24:03;;;;;;;;;;;;;;;;;;5040184;28;20032;-61
2023/09/29 12:26:28;;;;;;;513.55;473.98;;;;;;;;;;5031889;28;19992;-61
2023/09/29 12:28:53;;;;;;;625.10;576.17;;;;;;;;;;5035059;28;20095;-62
2023/09/29 12:31:18;;;;;;;;;;;;;;;;;;5032037;28;21013;-61
2023/09/29 12:33:45;;;;;;;466.80;433.37;;;;;;;;;;5032044;28;20016;-61
2023/09/29 12:36:10;;;;;;;572.30;528.65;;;;;;;;;;5033745;28;20045;-63
2023/09/29 12:38:36;;;;;;;;;;;;;;;;;;5033167;28;20449;-61
2023/09/29 12:41:01;;;;;;;612.88;562.70;;;;;;;;;;5023769;28;19913;-61
2023/09/29 12:43:26;;;;;;;;;;;;;;;;;;5012937;28;20017;-61
2023/09/29 12:45:51;;;;;;;594.47;549.75;;;;;;;;;;5020291;28;20007;-61
2023/09/29 12:48:16;;;;;;;;;;;;;;;;;;5034232;28;20018;-61
2023/09/29 12:50:43;;;;;;;532.08;489.90;;;;;;;;;;5031114;28;19905;-61
2023/09/29 12:53:08;;;;;;;488.92;449.48;;;;;;;;;;5031050;28;20477;-62
2023/09/29 12:55:33;;;;;;;;;;;;;;;;;;5028811;28;20032;-62
2023/09/29 12:58:05;;;;;;;438.92;401.65;;;;;;;;;;5031148;28;20288;-62
2023/09/29 13:00:34;;;;;;;471.38;431.75;;;;;;;;;;5030631;28;20049;-61
2023/09/29 13:03:04;;;;;;;449.65;413.13;;;;;;;;;;5030773;28;20032;-61
2023/09/29 13:05:29;;;;;;;508.00;468.83;;;;;;;;;;5031582;28;20192;-61
2023/09/29 13:07:56;;;;;;;;;;;;;;;;;;5032811;28;20108;-61
2023/09/29 13:10:22;;;;;;;496.60;456.52;;;;;;;;;;5034998;28;20011;-63
2023/09/29 13:12:54;;;;;;;;;;;;;;;;;;5032288;28;20501;-61
2023/09/29 13:15:21;;;;;;;429.55;396.60;;;;;;;;;;5031987;28;19909;-62
2023/09/29 13:17:46;;;;;;;541.92;497.63;;;;;;;;;;5030832;28;20056;-60
2023/09/29 13:20:12;;;;;;;;;;;;;;;;;;5030845;28;20056;-61
2023/09/29 13:22:38;;;;;;;525.53;481.98;;;;;;;;;;5031015;28;20365;-62
2023/09/29 13:25:04;;;;;;;494.58;452.55;;;;;;;;;;5033232;28;20068;-62
2023/09/29 13:27:32;;;;;;;;;;;;;;;;;;5032148;28;20013;-60
2023/09/29 13:29:57;;;;;;;551.78;503.63;;;;;;;;;;5029771;28;19919;-62
2023/09/29 13:32:22;;;;;;;484.07;444.00;;;;;;;;;;5030617;28;20034;-61
2023/09/29 13:34:47;;;;;;;;;;;;;;;;;;5031908;28;20029;-60
2023/09/29 13:37:16;;;;;;;505.85;466.52;;;;;;;;;;5035669;28;19905;-61
2023/09/29 13:39:42;;;;;;;399.92;367.65;;;;;;;;;;5037930;28;20021;-61
2023/09/29 13:42:07;;;;;;;608.47;561.28;;;;;;;;;;5037393;28;20161;-60
2023/09/29 13:44:32;;;;;;;;;;;;;;;;;;5035471;28;20100;-61
2023/09/29 13:46:58;;;;;;;598.20;551.55;;;;;;;;;;5035052;28;20273;-62
2023/09/29 13:49:23;;;;;;;;;;;;;;;;;;5035813;28;20026;-60
2023/09/29 13:51:48;;;;;;;457.10;418.37;;;;;;;;;;5034827;28;19905;-59
2023/09/29 13:54:13;;;;;;;;;;;;;;;;;;5042196;28;20090;-61
2023/09/29 13:56:38;;;;;;;422.48;388.27;;;;;;;;;;5035459;28;19944;-62
2023/09/29 13:59:05;;;;;;;466.57;428.87;;;;;;;;;;5034382;28;20052;-60
2023/09/29 14:01:31;;;;;;;555.08;511.23;;;;;;;;;;5032728;28;20020;-62
2023/09/29 14:03:58;;;;;;;490.53;448.43;;;;;;;;;;5034524;28;20092;-63
2023/09/29 14:06:23;;;;;;;439.50;401.17;;;;;;;;;;5034564;28;20024;-62
2023/09/29 14:08:48;;;;;;;365.13;336.67;;;;;;;;;;5036642;28;20017;-62
2023/09/29 14:11:14;;;;;;;;;;;;;;;;;;5034623;28;20021;-60